createdAt,value
2017-11-20T11:15:33.920Z,21.59
2017-11-20T11:16:46.712Z,21.7
2017-11-20T11:17:59.048Z,21.74
2017-11-20T11:19:11.384Z,21.7
2017-11-20T11:20:23.725Z,21.81
2017-11-20T11:21:36.495Z,21.82
2017-11-20T11:22:49.230Z,21.94
2017-11-20T11:24:01.537Z,21.91
2017-11-20T11:25:14.277Z,21.94
2017-11-20T11:26:27.171Z,22.05
2017-11-20T11:27:39.878Z,22.01
2017-11-20T11:28:52.576Z,22.14
2017-11-20T11:30:05.279Z,22.05
2017-11-20T11:31:17.537Z,22.09
2017-11-20T11:32:29.861Z,22.15
2017-11-20T11:33:42.149Z,22.17
2017-11-20T11:34:54.427Z,22.21
2017-11-20T11:36:07.141Z,22.2
2017-11-20T11:37:23.454Z,22.26
2017-11-20T11:38:39.658Z,22.36
2017-11-20T11:39:51.975Z,22.31
2017-11-20T11:41:04.775Z,22.39
2017-11-20T11:42:17.686Z,22.45
2017-11-20T11:43:30.623Z,22.45
2017-11-20T11:44:42.910Z,22.44
2017-11-20T11:45:55.688Z,22.49
2017-11-20T11:47:08.389Z,22.63
2017-11-20T11:48:21.132Z,22.61
2017-11-20T11:49:33.878Z,22.7
2017-11-20T11:50:46.241Z,22.7
2017-11-20T11:51:59.010Z,22.74
2017-11-20T11:53:11.300Z,22.88
2017-11-20T11:54:24.009Z,22.89
2017-11-20T11:55:35.841Z,22.96
2017-11-20T11:56:48.140Z,23
2017-11-20T11:58:00.900Z,23.12
2017-11-20T11:59:13.210Z,23.04
2017-11-20T12:00:25.056Z,23.07
2017-11-20T12:01:37.756Z,23.12
2017-11-20T12:02:50.492Z,23.14
2017-11-20T12:04:03.219Z,23.11
2017-11-20T12:05:14.547Z,23.14
2017-11-20T12:06:26.828Z,23.23
2017-11-20T12:07:39.538Z,23.22
2017-11-20T12:08:52.328Z,23.32
2017-11-20T12:10:05.108Z,23.29
2017-11-20T12:11:17.856Z,23.35
2017-11-20T12:12:29.702Z,23.34
2017-11-20T12:13:42.791Z,23.34
2017-11-20T12:14:55.478Z,23.29
2017-11-20T12:16:07.770Z,23.37
2017-11-20T12:17:20.060Z,23.38
2017-11-20T12:18:32.808Z,23.45
2017-11-20T12:19:45.557Z,23.41
2017-11-20T12:20:58.308Z,23.39
2017-11-20T12:22:10.620Z,23.39
2017-11-20T12:23:23.401Z,23.37
2017-11-20T12:24:36.143Z,23.25
2017-11-20T12:25:48.890Z,23.21
2017-11-20T12:27:00.710Z,23.06
2017-11-20T12:28:12.969Z,23.06
2017-11-20T12:29:25.276Z,23.04
2017-11-20T12:30:38.032Z,23.14
2017-11-20T12:31:50.817Z,23.14
2017-11-20T12:33:03.568Z,23.21
2017-11-20T12:34:16.308Z,23.19
2017-11-20T12:35:29.079Z,23.09
2017-11-20T12:36:41.425Z,23.16
2017-11-20T12:37:53.714Z,23.22
2017-11-20T12:39:06.437Z,23.21
2017-11-20T12:40:18.718Z,23.16
2017-11-20T12:41:31.430Z,23.14
2017-11-20T12:42:43.287Z,22.99
2017-11-20T12:43:55.646Z,23.14
2017-11-20T12:45:08.418Z,23.07
2017-11-20T12:46:21.423Z,22.99
2017-11-20T12:47:33.685Z,23.14
2017-11-20T12:48:45.981Z,23.18
2017-11-20T12:49:58.758Z,23.14
2017-11-20T12:51:11.486Z,23.34
2017-11-20T12:52:23.751Z,23.32
2017-11-20T12:53:36.021Z,23.35
2017-11-20T12:54:48.287Z,23.31
2017-11-20T12:56:01.005Z,23.34
2017-11-20T12:57:13.761Z,23.32
2017-11-20T12:58:26.041Z,23.39
2017-11-20T12:59:38.252Z,23.39
2017-11-20T13:00:50.960Z,23.49
2017-11-20T13:02:03.257Z,23.42
2017-11-20T13:03:16.032Z,23.45
2017-11-20T13:04:28.764Z,23.53
2017-11-20T13:05:41.485Z,23.62
2017-11-20T13:06:54.196Z,23.53
2017-11-20T13:08:06.908Z,23.49
2017-11-20T13:09:19.581Z,23.47
2017-11-20T13:10:32.334Z,23.42
2017-11-20T13:11:45.031Z,23.39
2017-11-20T13:12:57.749Z,23.45
2017-11-20T13:14:10.063Z,23.41
2017-11-20T13:15:22.759Z,23.38
2017-11-20T13:16:34.976Z,23.5
2017-11-20T13:17:47.644Z,23.53
2017-11-20T13:19:00.292Z,23.63
2017-11-20T13:20:12.044Z,23.42
2017-11-20T13:21:24.664Z,23.44
2017-11-20T13:22:37.315Z,23.49
2017-11-20T13:23:49.959Z,23.44
2017-11-20T13:25:01.726Z,23.56
2017-11-20T13:26:13.909Z,23.64
2017-11-20T13:27:26.511Z,23.53
2017-11-20T13:28:39.133Z,23.63
2017-11-20T13:29:51.752Z,23.56
2017-11-20T13:31:04.375Z,23.74
2017-11-20T13:32:16.100Z,23.74
2017-11-20T13:33:28.264Z,23.78
2017-11-20T13:34:40.901Z,23.75
2017-11-20T13:35:53.554Z,23.77
2017-11-20T13:37:05.745Z,23.89
2017-11-20T13:38:17.491Z,23.87
2017-11-20T13:39:30.225Z,23.96
2017-11-20T13:40:42.953Z,23.87
2017-11-20T13:41:55.640Z,23.84
2017-11-20T13:43:07.915Z,23.52
2017-11-20T13:44:20.222Z,23.41
2017-11-20T13:45:32.869Z,23.49
2017-11-20T13:46:45.138Z,23.49
2017-11-20T13:47:57.826Z,23.25
2017-11-20T13:49:09.648Z,23.16
2017-11-20T13:50:21.908Z,23.18
2017-11-20T13:51:34.145Z,23.06
2017-11-20T13:52:46.789Z,22.96
2017-11-20T13:53:59.496Z,22.89
2017-11-20T13:55:11.717Z,22.91
2017-11-20T13:56:24.467Z,22.82
2017-11-20T13:57:37.180Z,22.93
2017-11-20T13:58:49.929Z,22.82
2017-11-20T14:00:02.650Z,22.76
2017-11-20T14:01:15.305Z,22.64
2017-11-20T14:02:28.024Z,22.75
2017-11-20T14:03:40.307Z,22.82
2017-11-20T14:04:52.974Z,22.82
2017-11-20T14:06:05.264Z,22.76
2017-11-20T14:07:17.974Z,22.7
2017-11-20T14:08:30.683Z,22.72
2017-11-20T14:09:43.314Z,22.7
2017-11-20T14:10:55.567Z,22.7
2017-11-20T14:12:08.245Z,22.67
2017-11-20T14:13:20.858Z,22.61
2017-11-20T14:14:33.487Z,22.63
2017-11-20T14:15:46.124Z,22.6
2017-11-20T14:16:58.756Z,22.45
2017-11-20T14:18:10.936Z,22.51
2017-11-20T14:19:23.553Z,22.49
2017-11-20T14:20:35.743Z,22.45
2017-11-20T14:21:48.402Z,22.42
2017-11-20T14:23:01.028Z,22.39
2017-11-20T14:24:13.638Z,22.36
2017-11-20T14:25:26.251Z,22.31
2017-11-20T14:26:38.436Z,22.44
2017-11-20T14:27:51.043Z,22.38
2017-11-20T14:29:03.680Z,22.39
2017-11-20T14:30:16.299Z,22.31
2017-11-20T14:31:28.464Z,22.27
2017-11-20T14:32:40.650Z,22.29
2017-11-20T14:33:53.281Z,22.3
2017-11-20T14:35:05.911Z,22.27
2017-11-20T14:36:17.637Z,22.19
2017-11-20T14:37:30.246Z,22.12
2017-11-20T14:38:42.883Z,22.17
2017-11-20T14:39:55.500Z,22.15
2017-11-20T14:41:07.683Z,22.2
2017-11-20T14:42:20.313Z,22.12
2017-11-20T14:43:32.933Z,22.27
2017-11-20T14:44:45.566Z,22.14
2017-11-20T14:45:58.200Z,22.04
2017-11-20T14:47:10.819Z,22.05
2017-11-20T14:48:23.440Z,21.98
2017-11-20T14:49:36.082Z,21.85
2017-11-20T14:50:48.725Z,21.81
2017-11-20T14:52:01.350Z,21.74
2017-11-20T14:53:13.997Z,21.83
2017-11-20T14:54:26.631Z,21.79
2017-11-20T14:55:38.838Z,21.7
2017-11-20T14:56:51.482Z,21.71
2017-11-20T14:58:04.141Z,21.61
2017-11-20T14:59:16.776Z,21.61
2017-11-20T15:00:29.415Z,21.58
2017-11-20T15:01:41.607Z,21.71
2017-11-20T15:03:08.363Z,21.66
2017-11-20T15:04:21.012Z,21.64
2017-11-20T15:05:33.209Z,21.59
2017-11-20T15:06:45.857Z,21.53
2017-11-20T15:07:58.063Z,21.64
2017-11-20T15:09:10.726Z,21.61
2017-11-20T15:10:23.372Z,21.61
2017-11-20T15:11:35.996Z,21.63
2017-11-20T15:12:48.181Z,21.67
2017-11-20T15:14:00.822Z,21.67
2017-11-20T15:15:13.493Z,21.64
2017-11-20T15:16:26.148Z,21.64
2017-11-20T15:17:37.879Z,21.63
2017-11-20T15:18:50.498Z,21.7
2017-11-20T15:20:02.701Z,21.68
2017-11-20T15:21:15.333Z,21.74
2017-11-20T15:22:27.536Z,21.79
2017-11-20T15:23:40.188Z,21.86
2017-11-20T15:24:52.838Z,21.91
2017-11-20T15:26:05.487Z,21.91
2017-11-20T15:27:17.688Z,21.98
2017-11-20T15:28:30.341Z,22.06
2017-11-20T15:29:43.008Z,22.14
2017-11-20T15:30:55.700Z,22.35
2017-11-20T15:32:07.921Z,22.41
2017-11-20T15:33:20.596Z,22.44
2017-11-20T15:34:33.243Z,22.56
2017-11-20T15:35:45.452Z,22.51
2017-11-20T15:36:58.098Z,22.57
2017-11-20T15:38:10.739Z,22.52
2017-11-20T15:39:23.399Z,22.61
2017-11-20T15:40:36.046Z,22.63
2017-11-20T15:41:48.683Z,22.7
2017-11-20T15:43:01.327Z,22.66
2017-11-20T15:44:13.549Z,22.66
2017-11-20T15:45:25.883Z,22.74
2017-11-20T15:46:38.518Z,22.76
2017-11-20T15:47:51.156Z,22.82
2017-11-20T15:49:03.808Z,22.86
2017-11-20T15:50:16.470Z,23.07
2017-11-20T15:51:29.126Z,23.07
2017-11-20T15:52:41.344Z,23.15
2017-11-20T15:53:53.567Z,23.23
2017-11-20T15:55:06.216Z,23.18
2017-11-20T15:56:18.854Z,23.34
2017-11-20T15:57:31.058Z,23.41
2017-11-20T15:58:43.245Z,23.37
2017-11-20T15:59:55.900Z,23.41
2017-11-20T16:01:07.658Z,23.42
2017-11-20T16:02:20.670Z,23.53
2017-11-20T16:03:33.337Z,23.63
2017-11-20T16:04:46.001Z,23.69
2017-11-20T16:05:58.650Z,23.74
2017-11-20T16:07:11.292Z,23.72
2017-11-20T16:08:23.934Z,23.67
2017-11-20T16:09:36.128Z,23.71
2017-11-20T16:10:48.766Z,23.72
2017-11-20T16:12:01.411Z,23.78
2017-11-20T16:13:13.633Z,23.81
2017-11-20T16:14:26.310Z,23.86
2017-11-20T16:15:38.519Z,23.75
2017-11-20T16:16:50.292Z,23.68
2017-11-20T16:18:02.908Z,23.62
2017-11-20T16:19:15.550Z,23.47
2017-11-20T16:20:28.222Z,23.41
2017-11-20T16:21:40.418Z,23.32
2017-11-20T16:22:53.493Z,23.19
2017-11-20T16:24:05.678Z,23.11
2017-11-20T16:25:17.444Z,23.09
2017-11-20T16:26:29.642Z,23.03
2017-11-20T16:27:42.288Z,22.99
2017-11-20T16:28:54.953Z,22.89
2017-11-20T16:30:07.567Z,22.84
2017-11-20T16:31:20.189Z,22.85
2017-11-20T16:32:32.845Z,22.86
2017-11-20T16:33:45.469Z,22.66
2017-11-20T16:34:58.141Z,22.76
2017-11-20T16:36:08.998Z,22.67
2017-11-20T16:37:21.649Z,22.66
2017-11-20T16:38:34.323Z,22.63
2017-11-20T16:39:46.986Z,22.61
2017-11-20T16:40:59.612Z,22.6
2017-11-20T16:42:11.781Z,22.57
2017-11-20T16:43:24.441Z,22.54
2017-11-20T16:44:36.646Z,22.63
2017-11-20T16:45:48.859Z,22.6
2017-11-20T16:47:01.040Z,22.6
2017-11-20T16:48:13.666Z,22.48
2017-11-20T16:49:25.879Z,22.49
2017-11-20T16:50:38.520Z,22.49
2017-11-20T16:51:51.143Z,22.45
2017-11-20T16:53:03.332Z,22.46
2017-11-20T16:54:15.498Z,22.38
2017-11-20T16:55:27.677Z,22.42
2017-11-20T16:56:40.304Z,22.39
2017-11-20T16:57:52.479Z,22.38
2017-11-20T16:59:05.085Z,22.39
2017-11-20T17:00:17.292Z,22.38
2017-11-20T17:01:29.459Z,22.38
2017-11-20T17:02:42.097Z,22.39
2017-11-20T17:03:54.733Z,22.39
2017-11-20T17:05:06.925Z,22.3
2017-11-20T17:06:19.603Z,22.38
2017-11-20T17:07:32.284Z,22.27
2017-11-20T17:08:45.027Z,22.26
2017-11-20T17:09:57.828Z,22.27
2017-11-20T17:11:09.670Z,22.31
2017-11-20T17:12:21.894Z,22.26
2017-11-20T17:13:34.580Z,22.26
2017-11-20T17:14:46.358Z,22.19
2017-11-20T17:15:58.380Z,22.14
2017-11-20T17:17:09.284Z,22.19
2017-11-20T17:18:21.990Z,22.21
2017-11-20T17:19:34.202Z,22.14
2017-11-20T17:20:46.945Z,22.15
2017-11-20T17:21:59.205Z,22.09
2017-11-20T17:23:10.738Z,22.15
2017-11-20T17:24:22.542Z,21.99
2017-11-20T17:25:34.749Z,22.02
2017-11-20T17:26:46.976Z,21.93
2017-11-20T17:27:59.760Z,21.99
2017-11-20T17:29:12.030Z,21.9
2017-11-20T17:30:24.770Z,21.94
2017-11-20T17:31:37.490Z,21.96
2017-11-20T17:32:49.746Z,21.94
2017-11-20T17:34:01.951Z,21.96
2017-11-20T17:35:13.756Z,21.94
2017-11-20T17:36:26.462Z,21.93
2017-11-20T17:37:39.181Z,21.93
2017-11-20T17:38:51.449Z,21.93
2017-11-20T17:40:04.156Z,21.75
2017-11-20T17:41:16.162Z,21.79
2017-11-20T17:42:28.383Z,21.82
2017-11-20T17:43:40.646Z,21.82
2017-11-20T17:44:52.474Z,21.77
2017-11-20T17:46:05.162Z,21.64
2017-11-20T17:47:17.415Z,21.83
2017-11-20T17:48:30.095Z,21.77
2017-11-20T17:49:42.336Z,21.86
2017-11-20T17:50:55.012Z,21.63
2017-11-20T17:52:06.815Z,21.68
2017-11-20T17:53:19.503Z,21.68
2017-11-20T17:54:32.364Z,21.66
2017-11-20T17:55:45.028Z,21.71
2017-11-20T17:56:57.855Z,21.66
2017-11-20T17:58:10.155Z,21.68
2017-11-20T17:59:22.810Z,21.67
2017-11-20T18:00:35.519Z,21.68
2017-11-20T18:01:48.225Z,21.81
2017-11-20T18:03:00.897Z,21.75
2017-11-20T18:04:12.684Z,21.77
2017-11-20T18:05:24.482Z,21.81
2017-11-20T18:06:37.156Z,21.71
2017-11-20T18:07:49.364Z,21.71
2017-11-20T18:09:01.596Z,21.61
2017-11-20T18:10:13.850Z,21.59
2017-11-20T18:11:26.115Z,21.58
2017-11-20T18:12:37.956Z,21.64
2017-11-20T18:13:50.282Z,21.61
2017-11-20T18:15:01.611Z,21.68
2017-11-20T18:16:13.814Z,21.71
2017-11-20T18:17:26.058Z,21.64
2017-11-20T18:18:38.794Z,21.82
2017-11-20T18:19:51.039Z,21.73
2017-11-20T18:21:03.238Z,21.79
2017-11-20T18:22:15.881Z,21.82
2017-11-20T18:23:28.521Z,21.85
2017-11-20T18:24:41.250Z,21.82
2017-11-20T18:25:53.510Z,21.77
2017-11-20T18:27:05.759Z,21.66
2017-11-20T18:28:17.994Z,21.63
2017-11-20T18:29:30.737Z,21.67
2017-11-20T18:30:43.408Z,21.51
2017-11-20T18:31:56.094Z,21.45
2017-11-20T18:33:08.348Z,21.48
2017-11-20T18:34:21.047Z,21.4
2017-11-20T18:35:33.791Z,21.42
2017-11-20T18:36:46.535Z,21.43
2017-11-20T18:37:59.276Z,21.45
2017-11-20T18:39:11.074Z,21.38
2017-11-20T18:40:23.762Z,21.38
2017-11-20T18:41:35.964Z,21.46
2017-11-20T18:42:47.746Z,21.48
2017-11-20T18:44:00.436Z,21.46
2017-11-20T18:45:12.224Z,21.48
2017-11-20T18:46:24.405Z,21.49
2017-11-20T18:47:37.033Z,21.37
2017-11-20T18:48:49.680Z,21.31
2017-11-20T18:50:02.289Z,21.38
2017-11-20T18:51:14.904Z,21.24
2017-11-20T18:52:27.651Z,21.26
2017-11-20T18:53:40.287Z,21.22
2017-11-20T18:54:52.467Z,21.22
2017-11-20T18:56:05.090Z,21.19
2017-11-20T18:57:16.827Z,21.13
2017-11-20T18:58:29.003Z,21.06
2017-11-20T18:59:41.185Z,21.03
2017-11-20T19:00:53.802Z,21
2017-11-20T19:02:06.465Z,20.98
2017-11-20T19:03:19.222Z,21
2017-11-20T19:04:31.870Z,21.11
2017-11-20T19:05:44.098Z,21.13
2017-11-20T19:06:56.789Z,21.03
2017-11-20T19:08:09.504Z,21.16
2017-11-20T19:09:22.220Z,21.01
2017-11-20T19:10:34.986Z,20.97
2017-11-20T19:11:47.664Z,21.05
2017-11-20T19:13:00.400Z,21.03
2017-11-20T19:14:13.157Z,21.09
2017-11-20T19:15:25.812Z,21.11
2017-11-20T19:16:38.509Z,21.21
2017-11-20T19:17:50.713Z,21.16
2017-11-20T19:19:02.975Z,21.22
2017-11-20T19:20:15.604Z,21.21
2017-11-20T19:21:28.283Z,21.3
2017-11-20T19:22:41.035Z,21.3
2017-11-20T19:23:53.824Z,21.16
2017-11-20T19:25:06.584Z,21.22
2017-11-20T19:26:18.887Z,21.24
2017-11-20T19:27:31.203Z,21.19
2017-11-20T19:28:43.963Z,21.3
2017-11-20T19:29:56.706Z,21.31
2017-11-20T19:31:09.018Z,21.22
2017-11-20T19:32:21.797Z,21.24
2017-11-20T19:33:34.574Z,21.28
2017-11-20T19:34:46.880Z,21.27
2017-11-20T19:35:59.196Z,21.3
2017-11-20T19:37:11.506Z,21.19
2017-11-20T19:38:24.260Z,21.22
2017-11-20T19:39:37.010Z,21.24
2017-11-20T19:40:49.309Z,21.16
2017-11-20T19:42:01.154Z,21.21
2017-11-20T19:43:13.473Z,21.11
2017-11-20T19:44:26.223Z,21.09
2017-11-20T19:45:38.971Z,21.12
2017-11-20T19:46:51.716Z,21.24
2017-11-20T19:48:04.452Z,21.24
2017-11-20T19:49:17.211Z,21.18
2017-11-20T19:50:29.956Z,21.21
2017-11-20T19:51:42.683Z,21.19
2017-11-20T19:52:55.434Z,21.15
2017-11-20T19:54:07.730Z,21.06
2017-11-20T19:55:20.511Z,21.05
2017-11-20T19:56:32.340Z,21.05
2017-11-20T19:57:45.072Z,20.98
2017-11-20T19:58:57.817Z,20.9
2017-11-20T20:00:10.556Z,20.93
2017-11-20T20:01:23.294Z,20.9
2017-11-20T20:02:35.586Z,20.97
2017-11-20T20:03:48.358Z,20.93
2017-11-20T20:05:01.153Z,20.91
2017-11-20T20:06:13.892Z,20.9
2017-11-20T20:07:26.643Z,20.9
2017-11-20T20:08:39.370Z,20.88
2017-11-20T20:09:52.092Z,20.93
2017-11-20T20:11:04.382Z,20.98
2017-11-20T20:12:17.081Z,21.01
2017-11-20T20:13:29.752Z,21.01
2017-11-20T20:14:42.009Z,21.03
2017-11-20T20:15:54.271Z,20.88
2017-11-20T20:17:06.933Z,20.85
2017-11-20T20:18:19.602Z,20.9
2017-11-20T20:19:32.235Z,20.81
2017-11-20T20:20:44.908Z,20.9
2017-11-20T20:21:57.560Z,20.81
2017-11-20T20:23:09.796Z,20.79
2017-11-20T20:24:22.465Z,20.73
2017-11-20T20:25:35.146Z,20.76
2017-11-20T20:26:47.848Z,20.68
2017-11-20T20:28:00.050Z,20.66
2017-11-20T20:29:11.862Z,20.68
2017-11-20T20:30:24.534Z,20.69
2017-11-20T20:31:36.807Z,20.75
2017-11-20T20:32:49.461Z,20.69
2017-11-20T20:34:02.140Z,20.66
2017-11-20T20:35:14.843Z,20.75
2017-11-20T20:36:27.490Z,20.71
2017-11-20T20:37:40.119Z,20.75
2017-11-20T20:38:52.865Z,20.69
2017-11-20T20:40:05.589Z,20.68
2017-11-20T20:41:18.305Z,20.72
2017-11-20T20:42:30.518Z,20.75
2017-11-20T20:43:43.201Z,20.79
2017-11-20T20:44:55.445Z,20.85
2017-11-20T20:46:08.116Z,20.85
2017-11-20T20:47:20.395Z,20.9
2017-11-20T20:48:32.729Z,20.83
2017-11-20T20:49:45.481Z,20.83
2017-11-20T20:50:57.791Z,20.83
2017-11-20T20:52:10.103Z,20.83
2017-11-20T20:53:22.389Z,20.82
2017-11-20T20:54:35.142Z,20.83
2017-11-20T20:55:47.909Z,20.82
2017-11-20T20:57:00.641Z,20.71
2017-11-20T20:58:13.386Z,20.82
2017-11-20T20:59:26.151Z,20.81
2017-11-20T21:00:38.902Z,20.72
2017-11-20T21:01:51.654Z,20.72
2017-11-20T21:03:04.392Z,20.79
2017-11-20T21:04:17.124Z,20.83
2017-11-20T21:05:29.399Z,20.68
2017-11-20T21:06:41.235Z,20.75
2017-11-20T21:07:53.977Z,20.75
2017-11-20T21:09:06.676Z,20.85
2017-11-20T21:10:19.386Z,20.72
2017-11-20T21:11:32.338Z,20.75
2017-11-20T21:12:44.992Z,20.68
2017-11-20T21:13:57.247Z,20.68
2017-11-20T21:15:10.002Z,20.73
2017-11-20T21:16:22.712Z,20.66
2017-11-20T21:17:35.370Z,20.51
2017-11-20T21:18:48.027Z,20.56
2017-11-20T21:20:00.723Z,20.54
2017-11-20T21:21:13.002Z,20.54
2017-11-20T21:22:25.206Z,20.5
2017-11-20T21:23:37.835Z,20.46
2017-11-20T21:24:50.030Z,20.38
2017-11-20T21:26:02.650Z,20.48
2017-11-20T21:27:15.274Z,20.46
2017-11-20T21:28:27.915Z,20.35
2017-11-20T21:29:40.111Z,20.38
2017-11-20T21:30:52.736Z,20.41
2017-11-20T21:32:04.922Z,20.35
2017-11-20T21:33:17.089Z,20.46
2017-11-20T21:34:29.266Z,20.53
2017-11-20T21:35:41.914Z,20.54
2017-11-20T21:36:54.538Z,20.58
2017-11-20T21:38:07.143Z,20.58
2017-11-20T21:39:19.815Z,20.57
2017-11-20T21:40:31.653Z,20.54
2017-11-20T21:41:44.300Z,20.57
2017-11-20T21:42:57.007Z,20.54
2017-11-20T21:44:09.672Z,20.57
2017-11-20T21:45:21.910Z,20.57
2017-11-20T21:46:34.110Z,20.54
2017-11-20T21:47:46.292Z,20.6
2017-11-20T21:48:58.998Z,20.58
2017-11-20T21:50:11.664Z,20.57
2017-11-20T21:51:24.353Z,20.57
2017-11-20T21:52:36.610Z,20.61
2017-11-20T21:53:48.874Z,20.64
2017-11-20T21:55:01.611Z,20.56
2017-11-20T21:56:14.339Z,20.48
2017-11-20T21:57:26.540Z,20.5
2017-11-20T21:58:38.308Z,20.48
2017-11-20T21:59:51.024Z,20.41
2017-11-20T22:01:03.734Z,20.46
2017-11-20T22:02:15.928Z,20.34
2017-11-20T22:03:28.191Z,20.42
2017-11-20T22:04:40.422Z,20.41
2017-11-20T22:05:52.757Z,20.38
2017-11-20T22:07:05.420Z,20.35
2017-11-20T22:08:18.086Z,20.42
2017-11-20T22:09:30.828Z,20.46
2017-11-20T22:10:43.061Z,20.46
2017-11-20T22:11:55.774Z,20.51
2017-11-20T22:13:08.448Z,20.44
2017-11-20T22:14:20.700Z,20.38
2017-11-20T22:15:32.983Z,20.46
2017-11-20T22:16:45.284Z,20.41
2017-11-20T22:17:57.998Z,20.33
2017-11-20T22:19:10.734Z,20.33
2017-11-20T22:20:23.448Z,20.34
2017-11-20T22:21:34.794Z,20.3
2017-11-20T22:22:47.109Z,20.34
2017-11-20T22:23:59.826Z,20.38
2017-11-20T22:25:11.596Z,20.33
2017-11-20T22:26:24.274Z,20.4
2017-11-20T22:27:36.972Z,20.23
2017-11-20T22:28:49.661Z,20.15
2017-11-20T22:30:02.397Z,20.1
2017-11-20T22:31:14.703Z,20.08
2017-11-20T22:32:27.387Z,20.1
2017-11-20T22:33:39.636Z,20.15
2017-11-20T22:34:52.364Z,20.1
2017-11-20T22:36:05.050Z,20.02
2017-11-20T22:37:16.827Z,20.16
2017-11-20T22:38:29.521Z,20.12
2017-11-20T22:39:41.727Z,20.04
2017-11-20T22:40:54.403Z,20.08
2017-11-20T22:42:07.123Z,20.1
2017-11-20T22:43:19.791Z,20.05
2017-11-20T22:44:32.073Z,19.94
2017-11-20T22:45:44.299Z,20.01
2017-11-20T22:46:56.947Z,19.92
2017-11-20T22:48:09.710Z,19.94
2017-11-20T22:49:22.404Z,19.9
2017-11-20T22:50:34.646Z,20.08
2017-11-20T22:51:46.942Z,19.94
2017-11-20T22:52:59.698Z,20.02
2017-11-20T22:54:12.462Z,19.89
2017-11-20T22:55:25.143Z,19.79
2017-11-20T22:56:37.840Z,19.94
2017-11-20T22:57:50.547Z,19.83
2017-11-20T22:59:03.230Z,19.8
2017-11-20T23:00:15.956Z,19.83
2017-11-20T23:01:28.703Z,19.82
2017-11-20T23:02:41.443Z,19.85
2017-11-20T23:03:54.221Z,19.83
2017-11-20T23:05:06.466Z,19.75
2017-11-20T23:06:18.877Z,19.78
2017-11-20T23:07:31.158Z,19.83
2017-11-20T23:08:43.935Z,19.71
2017-11-20T23:09:56.647Z,19.82
2017-11-20T23:11:08.962Z,19.76
2017-11-20T23:12:21.694Z,19.72
2017-11-20T23:13:34.434Z,19.76
2017-11-20T23:14:47.127Z,19.76
2017-11-20T23:15:59.797Z,19.68
2017-11-20T23:17:12.081Z,19.76
2017-11-20T23:18:24.863Z,19.83
2017-11-20T23:19:37.125Z,19.82
2017-11-20T23:20:49.814Z,19.7
2017-11-20T23:22:02.560Z,19.72
2017-11-20T23:23:15.255Z,19.72
2017-11-20T23:24:27.555Z,19.72
2017-11-20T23:25:40.293Z,19.75
2017-11-20T23:26:52.969Z,19.7
2017-11-20T23:28:05.697Z,19.78
2017-11-20T23:29:17.492Z,19.67
2017-11-20T23:30:29.782Z,19.75
2017-11-20T23:31:42.047Z,19.8
2017-11-20T23:32:54.769Z,19.68
2017-11-20T23:34:07.042Z,19.79
2017-11-20T23:35:19.804Z,19.86
2017-11-20T23:36:32.028Z,19.83
2017-11-20T23:37:44.315Z,19.82
2017-11-20T23:39:01.797Z,19.78
2017-11-20T23:40:29.596Z,19.83
2017-11-20T23:41:41.373Z,19.83
2017-11-20T23:42:54.076Z,19.83
2017-11-20T23:44:06.785Z,19.82
2017-11-20T23:45:19.020Z,19.83
2017-11-20T23:46:31.704Z,19.92
2017-11-20T23:47:44.434Z,19.94
2017-11-20T23:48:56.705Z,19.85
2017-11-20T23:50:09.009Z,19.82
2017-11-20T23:51:21.304Z,19.82
2017-11-20T23:52:33.520Z,19.8
2017-11-20T23:53:46.243Z,19.85
2017-11-20T23:54:59.071Z,19.85
2017-11-20T23:56:11.307Z,19.89
2017-11-20T23:57:24.035Z,19.83
2017-11-20T23:58:36.816Z,19.85
2017-11-20T23:59:49.523Z,19.79
